sensor_id;sensor_type;location;lat;lon;timestamp;P1;P2;P0
55449;PMS5003;41318;58.724;50.180;2022-10-16T00:02:27;68.60;54.80;33.00
55449;PMS5003;41318;58.724;50.180;2022-10-16T00:04:58;73.60;56.40;33.20
55449;PMS5003;41318;58.724;50.180;2022-10-16T00:07:29;65.25;52.25;28.75
55449;PMS5003;41318;58.724;50.180;2022-10-16T00:10:00;67.20;53.00;32.60
55449;PMS5003;41318;58.724;50.180;2022-10-16T00:12:33;61.40;51.60;32.60
55449;PMS5003;41318;58.724;50.180;2022-10-16T00:15:04;51.80;44.40;26.20
55449;PMS5003;41318;58.724;50.180;2022-10-16T00:17:36;39.60;38.00;25.00
55449;PMS5003;41318;58.724;50.180;2022-10-16T00:20:07;33.60;32.40;21.40
55449;PMS5003;41318;58.724;50.180;2022-10-16T00:22:57;35.60;34.60;23.40
55449;PMS5003;41318;58.724;50.180;2022-10-16T00:25:57;33.20;33.20;22.40
55449;PMS5003;41318;58.724;50.180;2022-10-16T00:28:28;23.00;23.00;17.20
55449;PMS5003;41318;58.724;50.180;2022-10-16T00:31:02;14.20;14.20;9.40
55449;PMS5003;41318;58.724;50.180;2022-10-16T00:33:33;20.20;20.20;12.40
55449;PMS5003;41318;58.724;50.180;2022-10-16T00:36:24;19.00;19.00;13.00
55449;PMS5003;41318;58.724;50.180;2022-10-16T00:38:56;17.80;17.80;13.80
55449;PMS5003;41318;58.724;50.180;2022-10-16T00:41:28;65.20;53.20;33.00
55449;PMS5003;41318;58.724;50.180;2022-10-16T00:44:00;94.60;83.40;44.80
55449;PMS5003;41318;58.724;50.180;2022-10-16T00:46:35;78.20;61.40;36.00
55449;PMS5003;41318;58.724;50.180;2022-10-16T00:49:09;60.80;49.00;27.20
55449;PMS5003;41318;58.724;50.180;2022-10-16T00:51:41;63.40;49.80;31.00
55449;PMS5003;41318;58.724;50.180;2022-10-16T00:54:14;82.20;65.40;39.80
55449;PMS5003;41318;58.724;50.180;2022-10-16T00:56:46;57.60;47.60;29.60
55449;PMS5003;41318;58.724;50.180;2022-10-16T00:59:50;54.60;45.40;29.00
55449;PMS5003;41318;58.724;50.180;2022-10-16T01:02:15;69.20;57.00;37.00
55449;PMS5003;41318;58.724;50.180;2022-10-16T01:04:48;107.00;95.00;50.00
55449;PMS5003;41318;58.724;50.180;2022-10-16T01:07:26;82.40;64.20;38.80
55449;PMS5003;41318;58.724;50.180;2022-10-16T01:10:06;50.40;44.00;27.40
55449;PMS5003;41318;58.724;50.180;2022-10-16T01:15:31;154.00;132.67;65.00
55449;PMS5003;41318;58.724;50.180;2022-10-16T01:18:37;84.60;67.40;39.40
55449;PMS5003;41318;58.724;50.180;2022-10-16T01:21:16;43.40;39.40;26.20
55449;PMS5003;41318;58.724;50.180;2022-10-16T01:27:27;61.20;48.40;25.80
55449;PMS5003;41318;58.724;50.180;2022-10-16T01:30:10;63.80;50.80;31.60
55449;PMS5003;41318;58.724;50.180;2022-10-16T01:32:42;54.00;40.20;19.60
55449;PMS5003;41318;58.724;50.180;2022-10-16T01:38:20;87.40;71.20;41.40
55449;PMS5003;41318;58.724;50.180;2022-10-16T01:40:54;55.40;46.80;26.40
55449;PMS5003;41318;58.724;50.180;2022-10-16T01:43:33;90.20;75.20;40.80
55449;PMS5003;41318;58.724;50.180;2022-10-16T01:46:05;78.20;61.80;35.60
55449;PMS5003;41318;58.724;50.180;2022-10-16T01:48:36;69.40;52.80;33.60
55449;PMS5003;41318;58.724;50.180;2022-10-16T01:51:09;74.00;58.80;33.40
55449;PMS5003;41318;58.724;50.180;2022-10-16T01:53:43;68.40;53.60;31.20
55449;PMS5003;41318;58.724;50.180;2022-10-16T01:56:17;58.80;47.00;27.80
55449;PMS5003;41318;58.724;50.180;2022-10-16T01:58:58;49.00;42.00;23.60
55449;PMS5003;41318;58.724;50.180;2022-10-16T02:01:33;38.20;33.00;18.80
55449;PMS5003;41318;58.724;50.180;2022-10-16T02:04:11;35.20;34.00;22.40
55449;PMS5003;41318;58.724;50.180;2022-10-16T02:06:46;28.60;28.60;17.60
55449;PMS5003;41318;58.724;50.180;2022-10-16T02:09:17;25.60;24.40;17.80
55449;PMS5003;41318;58.724;50.180;2022-10-16T02:11:48;23.40;23.40;15.60
55449;PMS5003;41318;58.724;50.180;2022-10-16T02:14:21;27.00;27.00;17.00
55449;PMS5003;41318;58.724;50.180;2022-10-16T02:16:55;41.40;38.80;24.00
55449;PMS5003;41318;58.724;50.180;2022-10-16T02:19:26;34.40;32.80;19.20
55449;PMS5003;41318;58.724;50.180;2022-10-16T02:21:58;32.80;32.00;22.60
55449;PMS5003;41318;58.724;50.180;2022-10-16T02:25:00;24.40;24.00;19.80
55449;PMS5003;41318;58.724;50.180;2022-10-16T02:30:07;23.80;22.80;14.80
55449;PMS5003;41318;58.724;50.180;2022-10-16T02:32:41;25.80;25.80;18.20
55449;PMS5003;41318;58.724;50.180;2022-10-16T02:35:15;33.60;30.60;20.20
55449;PMS5003;41318;58.724;50.180;2022-10-16T02:37:48;57.00;47.40;27.20
55449;PMS5003;41318;58.724;50.180;2022-10-16T02:40:20;37.20;36.00;23.80
55449;PMS5003;41318;58.724;50.180;2022-10-16T02:42:52;28.00;27.40;22.00
55449;PMS5003;41318;58.724;50.180;2022-10-16T02:45:24;74.80;60.00;34.60
55449;PMS5003;41318;58.724;50.180;2022-10-16T02:47:55;77.00;61.40;35.40
55449;PMS5003;41318;58.724;50.180;2022-10-16T02:50:27;53.80;44.20;27.00
55449;PMS5003;41318;58.724;50.180;2022-10-16T02:52:58;52.60;42.60;27.00
55449;PMS5003;41318;58.724;50.180;2022-10-16T02:55:29;61.00;51.00;28.40
55449;PMS5003;41318;58.724;50.180;2022-10-16T02:58:00;68.40;53.60;30.80
55449;PMS5003;41318;58.724;50.180;2022-10-16T03:00:32;48.80;41.80;26.00
55449;PMS5003;41318;58.724;50.180;2022-10-16T03:03:02;54.00;45.50;27.00
55449;PMS5003;41318;58.724;50.180;2022-10-16T03:05:33;30.80;30.80;21.40
55449;PMS5003;41318;58.724;50.180;2022-10-16T03:08:04;24.60;24.60;16.20
55449;PMS5003;41318;58.724;50.180;2022-10-16T03:10:35;25.20;23.80;17.80
55449;PMS5003;41318;58.724;50.180;2022-10-16T03:13:07;22.00;21.60;15.20
55449;PMS5003;41318;58.724;50.180;2022-10-16T03:15:56;33.80;32.40;20.80
55449;PMS5003;41318;58.724;50.180;2022-10-16T03:18:27;26.00;26.00;14.20
55449;PMS5003;41318;58.724;50.180;2022-10-16T03:20:58;23.00;22.80;16.60
55449;PMS5003;41318;58.724;50.180;2022-10-16T03:23:29;24.80;24.60;15.60
55449;PMS5003;41318;58.724;50.180;2022-10-16T03:26:00;26.60;26.60;17.00
55449;PMS5003;41318;58.724;50.180;2022-10-16T03:28:49;22.40;22.40;16.40
55449;PMS5003;41318;58.724;50.180;2022-10-16T03:31:38;15.80;15.80;11.80
55449;PMS5003;41318;58.724;50.180;2022-10-16T03:34:09;22.75;22.00;15.75
55449;PMS5003;41318;58.724;50.180;2022-10-16T03:36:40;35.40;35.00;24.00
55449;PMS5003;41318;58.724;50.180;2022-10-16T03:39:11;24.80;24.60;18.00
55449;PMS5003;41318;58.724;50.180;2022-10-16T03:41:42;28.00;27.60;20.00
55449;PMS5003;41318;58.724;50.180;2022-10-16T03:44:13;18.80;18.00;13.60
55449;PMS5003;41318;58.724;50.180;2022-10-16T03:46:45;16.00;16.00;12.80
55449;PMS5003;41318;58.724;50.180;2022-10-16T03:49:16;18.00;18.00;12.60
55449;PMS5003;41318;58.724;50.180;2022-10-16T03:51:47;7.00;7.00;5.00
55449;PMS5003;41318;58.724;50.180;2022-10-16T03:54:18;23.20;22.80;16.40
55449;PMS5003;41318;58.724;50.180;2022-10-16T03:56:50;20.40;20.40;13.80
55449;PMS5003;41318;58.724;50.180;2022-10-16T03:59:22;15.60;15.20;10.00
55449;PMS5003;41318;58.724;50.180;2022-10-16T04:02:12;16.00;16.00;12.80
55449;PMS5003;41318;58.724;50.180;2022-10-16T04:04:43;11.40;11.40;9.00
55449;PMS5003;41318;58.724;50.180;2022-10-16T04:07:14;13.80;13.60;10.00
55449;PMS5003;41318;58.724;50.180;2022-10-16T04:10:04;15.00;14.20;9.80
55449;PMS5003;41318;58.724;50.180;2022-10-16T04:12:35;13.80;13.40;10.00
55449;PMS5003;41318;58.724;50.180;2022-10-16T04:15:06;16.60;14.80;11.60
55449;PMS5003;41318;58.724;50.180;2022-10-16T04:17:37;16.20;16.20;12.80
55449;PMS5003;41318;58.724;50.180;2022-10-16T04:20:08;14.80;14.80;12.80
55449;PMS5003;41318;58.724;50.180;2022-10-16T04:22:39;24.60;24.60;16.60
55449;PMS5003;41318;58.724;50.180;2022-10-16T04:25:10;25.60;25.60;16.00
55449;PMS5003;41318;58.724;50.180;2022-10-16T04:27:43;23.20;23.20;18.80
55449;PMS5003;41318;58.724;50.180;2022-10-16T04:30:32;19.80;19.80;13.80
55449;PMS5003;41318;58.724;50.180;2022-10-16T04:33:04;29.20;25.80;16.00
55449;PMS5003;41318;58.724;50.180;2022-10-16T04:35:36;26.00;24.20;19.00
55449;PMS5003;41318;58.724;50.180;2022-10-16T04:38:07;22.60;22.60;16.20
55449;PMS5003;41318;58.724;50.180;2022-10-16T04:40:38;26.20;26.20;19.00
55449;PMS5003;41318;58.724;50.180;2022-10-16T04:43:10;26.00;25.80;18.60
55449;PMS5003;41318;58.724;50.180;2022-10-16T04:45:41;27.00;25.20;18.20
55449;PMS5003;41318;58.724;50.180;2022-10-16T04:48:12;22.40;22.40;16.40
55449;PMS5003;41318;58.724;50.180;2022-10-16T04:50:43;23.60;16.80;8.00
55449;PMS5003;41318;58.724;50.180;2022-10-16T04:53:15;24.60;24.00;17.20
55449;PMS5003;41318;58.724;50.180;2022-10-16T04:55:46;19.20;18.80;12.40
55449;PMS5003;41318;58.724;50.180;2022-10-16T04:58:17;16.20;16.20;10.20
55449;PMS5003;41318;58.724;50.180;2022-10-16T05:00:48;10.40;10.40;8.60
55449;PMS5003;41318;58.724;50.180;2022-10-16T05:03:20;13.80;13.80;9.00
55449;PMS5003;41318;58.724;50.180;2022-10-16T05:06:09;8.40;8.20;7.20
55449;PMS5003;41318;58.724;50.180;2022-10-16T05:08:41;21.40;21.20;13.40
55449;PMS5003;41318;58.724;50.180;2022-10-16T05:11:12;13.20;12.60;9.00
55449;PMS5003;41318;58.724;50.180;2022-10-16T05:13:43;11.00;11.00;9.40
55449;PMS5003;41318;58.724;50.180;2022-10-16T05:16:14;12.80;12.80;9.80
55449;PMS5003;41318;58.724;50.180;2022-10-16T05:18:45;16.20;16.20;10.80
55449;PMS5003;41318;58.724;50.180;2022-10-16T05:21:16;11.40;11.40;9.00
55449;PMS5003;41318;58.724;50.180;2022-10-16T05:24:05;15.80;15.80;11.80
55449;PMS5003;41318;58.724;50.180;2022-10-16T05:26:36;14.20;14.20;10.00
55449;PMS5003;41318;58.724;50.180;2022-10-16T05:29:08;13.00;13.00;11.00
55449;PMS5003;41318;58.724;50.180;2022-10-16T05:31:39;11.60;11.60;9.00
55449;PMS5003;41318;58.724;50.180;2022-10-16T05:34:29;16.60;16.60;12.40
55449;PMS5003;41318;58.724;50.180;2022-10-16T05:37:00;12.50;12.50;9.00
55449;PMS5003;41318;58.724;50.180;2022-10-16T05:39:31;15.20;15.20;10.00
55449;PMS5003;41318;58.724;50.180;2022-10-16T05:42:03;14.60;14.60;10.60
55449;PMS5003;41318;58.724;50.180;2022-10-16T05:44:34;12.80;12.80;10.20
55449;PMS5003;41318;58.724;50.180;2022-10-16T05:47:05;13.00;11.40;8.00
55449;PMS5003;41318;58.724;50.180;2022-10-16T05:49:36;12.00;11.60;9.60
55449;PMS5003;41318;58.724;50.180;2022-10-16T05:52:08;14.20;14.20;10.80
55449;PMS5003;41318;58.724;50.180;2022-10-16T05:54:40;12.40;12.40;10.40
55449;PMS5003;41318;58.724;50.180;2022-10-16T05:57:11;12.20;12.20;9.00
55449;PMS5003;41318;58.724;50.180;2022-10-16T06:00:00;16.20;16.20;11.00
55449;PMS5003;41318;58.724;50.180;2022-10-16T06:02:31;19.20;18.80;13.00
55449;PMS5003;41318;58.724;50.180;2022-10-16T06:05:03;18.80;17.80;12.20
55449;PMS5003;41318;58.724;50.180;2022-10-16T06:07:34;20.80;19.20;14.20
55449;PMS5003;41318;58.724;50.180;2022-10-16T06:10:25;16.60;16.60;11.60
55449;PMS5003;41318;58.724;50.180;2022-10-16T06:12:56;17.20;17.20;12.80
55449;PMS5003;41318;58.724;50.180;2022-10-16T06:15:46;19.20;18.80;12.40
55449;PMS5003;41318;58.724;50.180;2022-10-16T06:18:17;20.40;20.40;14.60
55449;PMS5003;41318;58.724;50.180;2022-10-16T06:20:48;10.20;10.20;9.20
55449;PMS5003;41318;58.724;50.180;2022-10-16T06:23:19;11.75;11.75;8.50
55449;PMS5003;41318;58.724;50.180;2022-10-16T06:26:10;16.80;15.00;10.40
55449;PMS5003;41318;58.724;50.180;2022-10-16T06:28:41;9.50;9.50;6.50
55449;PMS5003;41318;58.724;50.180;2022-10-16T06:31:12;8.20;8.20;8.00
55449;PMS5003;41318;58.724;50.180;2022-10-16T06:33:43;10.00;10.00;7.80
55449;PMS5003;41318;58.724;50.180;2022-10-16T06:36:16;8.40;8.40;5.00
55449;PMS5003;41318;58.724;50.180;2022-10-16T06:39:06;12.00;12.00;9.80
55449;PMS5003;41318;58.724;50.180;2022-10-16T06:41:38;10.00;10.00;8.00
55449;PMS5003;41318;58.724;50.180;2022-10-16T06:44:19;11.40;11.40;10.40
55449;PMS5003;41318;58.724;50.180;2022-10-16T06:46:50;14.00;13.60;9.00
55449;PMS5003;41318;58.724;50.180;2022-10-16T06:49:21;12.80;12.80;9.60
55449;PMS5003;41318;58.724;50.180;2022-10-16T06:51:53;10.20;10.20;8.00
55449;PMS5003;41318;58.724;50.180;2022-10-16T06:54:24;10.75;10.75;9.00
55449;PMS5003;41318;58.724;50.180;2022-10-16T06:57:13;12.60;12.60;10.60
55449;PMS5003;41318;58.724;50.180;2022-10-16T06:59:45;20.60;20.60;14.60
55449;PMS5003;41318;58.724;50.180;2022-10-16T07:02:16;13.20;13.20;11.20
55449;PMS5003;41318;58.724;50.180;2022-10-16T07:04:47;9.50;9.50;7.00
55449;PMS5003;41318;58.724;50.180;2022-10-16T07:07:18;12.40;12.40;10.20
55449;PMS5003;41318;58.724;50.180;2022-10-16T07:09:49;13.20;13.20;11.40
55449;PMS5003;41318;58.724;50.180;2022-10-16T07:12:20;18.20;18.20;12.00
55449;PMS5003;41318;58.724;50.180;2022-10-16T07:14:51;10.00;10.00;7.00
55449;PMS5003;41318;58.724;50.180;2022-10-16T07:17:23;19.00;18.40;14.00
55449;PMS5003;41318;58.724;50.180;2022-10-16T07:19:54;15.00;15.00;12.80
55449;PMS5003;41318;58.724;50.180;2022-10-16T07:22:27;11.40;11.00;8.60
55449;PMS5003;41318;58.724;50.180;2022-10-16T07:25:17;7.25;7.25;5.25
55449;PMS5003;41318;58.724;50.180;2022-10-16T07:27:48;11.60;11.40;9.40
55449;PMS5003;41318;58.724;50.180;2022-10-16T07:30:19;22.20;22.20;18.00
55449;PMS5003;41318;58.724;50.180;2022-10-16T07:32:50;11.00;11.00;9.80
55449;PMS5003;41318;58.724;50.180;2022-10-16T07:35:49;15.40;15.40;12.60
55449;PMS5003;41318;58.724;50.180;2022-10-16T07:38:21;19.00;17.00;12.60
55449;PMS5003;41318;58.724;50.180;2022-10-16T07:40:57;13.00;12.50;10.00
55449;PMS5003;41318;58.724;50.180;2022-10-16T07:43:28;25.00;23.80;14.60
55449;PMS5003;41318;58.724;50.180;2022-10-16T07:46:19;37.60;35.00;21.60
55449;PMS5003;41318;58.724;50.180;2022-10-16T07:48:50;31.20;29.20;18.80
55449;PMS5003;41318;58.724;50.180;2022-10-16T07:51:39;48.20;41.00;25.60
55449;PMS5003;41318;58.724;50.180;2022-10-16T07:54:10;41.20;37.40;25.40
55449;PMS5003;41318;58.724;50.180;2022-10-16T07:56:41;27.40;26.80;20.00
55449;PMS5003;41318;58.724;50.180;2022-10-16T07:59:13;41.00;38.00;25.20
55449;PMS5003;41318;58.724;50.180;2022-10-16T08:01:44;60.80;49.40;29.00
55449;PMS5003;41318;58.724;50.180;2022-10-16T08:04:15;61.50;50.25;32.75
55449;PMS5003;41318;58.724;50.180;2022-10-16T08:06:46;58.60;46.20;32.00
55449;PMS5003;41318;58.724;50.180;2022-10-16T08:09:35;50.80;44.20;29.00
55449;PMS5003;41318;58.724;50.180;2022-10-16T08:12:07;27.50;27.00;19.75
55449;PMS5003;41318;58.724;50.180;2022-10-16T08:14:38;29.20;29.00;22.40
55449;PMS5003;41318;58.724;50.180;2022-10-16T08:17:27;24.60;24.60;19.00
55449;PMS5003;41318;58.724;50.180;2022-10-16T08:19:58;19.25;19.25;14.00
55449;PMS5003;41318;58.724;50.180;2022-10-16T08:22:29;15.67;15.67;12.00
55449;PMS5003;41318;58.724;50.180;2022-10-16T08:25:00;13.50;13.50;9.25
55449;PMS5003;41318;58.724;50.180;2022-10-16T08:27:31;20.60;20.60;15.00
55449;PMS5003;41318;58.724;50.180;2022-10-16T08:30:02;18.50;18.50;13.00
55449;PMS5003;41318;58.724;50.180;2022-10-16T08:32:34;21.20;21.20;14.60
55449;PMS5003;41318;58.724;50.180;2022-10-16T08:35:04;23.00;23.00;17.50
55449;PMS5003;41318;58.724;50.180;2022-10-16T08:37:36;21.80;21.80;16.80
55449;PMS5003;41318;58.724;50.180;2022-10-16T08:40:11;21.80;21.80;17.00
55449;PMS5003;41318;58.724;50.180;2022-10-16T08:46:04;22.80;22.80;17.20
55449;PMS5003;41318;58.724;50.180;2022-10-16T08:51:12;48.60;40.80;26.20
55449;PMS5003;41318;58.724;50.180;2022-10-16T08:56:19;30.40;29.40;20.60
55449;PMS5003;41318;58.724;50.180;2022-10-16T08:58:51;26.60;26.60;20.00
55449;PMS5003;41318;58.724;50.180;2022-10-16T09:01:22;34.20;33.40;22.40
55449;PMS5003;41318;58.724;50.180;2022-10-16T09:03:59;33.40;32.60;22.20
55449;PMS5003;41318;58.724;50.180;2022-10-16T09:06:50;32.60;32.60;22.00
55449;PMS5003;41318;58.724;50.180;2022-10-16T09:09:30;28.20;27.20;18.20
55449;PMS5003;41318;58.724;50.180;2022-10-16T09:12:09;38.40;35.60;23.20
55449;PMS5003;41318;58.724;50.180;2022-10-16T09:15:13;34.40;33.40;22.00
55449;PMS5003;41318;58.724;50.180;2022-10-16T09:20:23;30.40;29.80;21.60
55449;PMS5003;41318;58.724;50.180;2022-10-16T09:23:08;63.40;51.20;33.00
55449;PMS5003;41318;58.724;50.180;2022-10-16T09:25:43;62.40;49.40;32.60
55449;PMS5003;41318;58.724;50.180;2022-10-16T09:28:14;51.00;44.00;29.00
55449;PMS5003;41318;58.724;50.180;2022-10-16T09:30:46;36.00;34.80;22.60
55449;PMS5003;41318;58.724;50.180;2022-10-16T09:33:28;57.80;48.00;30.60
55449;PMS5003;41318;58.724;50.180;2022-10-16T09:36:00;44.20;39.00;26.00
55449;PMS5003;41318;58.724;50.180;2022-10-16T09:39:01;38.60;35.60;24.00
55449;PMS5003;41318;58.724;50.180;2022-10-16T09:41:34;33.60;32.20;21.00
55449;PMS5003;41318;58.724;50.180;2022-10-16T09:44:06;37.40;34.60;24.80
55449;PMS5003;41318;58.724;50.180;2022-10-16T09:46:46;24.60;23.40;21.80
55449;PMS5003;41318;58.724;50.180;2022-10-16T09:49:23;31.75;31.75;23.00
55449;PMS5003;41318;58.724;50.180;2022-10-16T09:52:05;45.20;40.00;25.60
55449;PMS5003;41318;58.724;50.180;2022-10-16T09:54:36;56.60;46.00;30.00
55449;PMS5003;41318;58.724;50.180;2022-10-16T09:57:10;39.60;35.80;22.80
55449;PMS5003;41318;58.724;50.180;2022-10-16T09:59:47;29.80;29.00;21.00
55449;PMS5003;41318;58.724;50.180;2022-10-16T10:02:29;35.80;31.40;20.80
55449;PMS5003;41318;58.724;50.180;2022-10-16T10:05:00;28.00;27.60;20.80
55449;PMS5003;41318;58.724;50.180;2022-10-16T10:07:57;34.60;33.20;22.20
55449;PMS5003;41318;58.724;50.180;2022-10-16T10:10:30;26.80;26.80;20.00
55449;PMS5003;41318;58.724;50.180;2022-10-16T10:13:20;24.00;23.80;16.80
55449;PMS5003;41318;58.724;50.180;2022-10-16T10:15:52;32.80;30.60;21.20
55449;PMS5003;41318;58.724;50.180;2022-10-16T10:18:42;31.80;31.00;21.00
55449;PMS5003;41318;58.724;50.180;2022-10-16T10:21:13;49.25;42.25;27.75
55449;PMS5003;41318;58.724;50.180;2022-10-16T10:24:04;40.20;36.60;25.00
55449;PMS5003;41318;58.724;50.180;2022-10-16T10:26:36;37.20;33.80;22.00
55449;PMS5003;41318;58.724;50.180;2022-10-16T10:29:12;41.60;36.00;23.80
55449;PMS5003;41318;58.724;50.180;2022-10-16T10:31:52;36.60;33.60;23.80
55449;PMS5003;41318;58.724;50.180;2022-10-16T10:43:19;38.20;35.00;24.00
55449;PMS5003;41318;58.724;50.180;2022-10-16T10:45:58;47.80;40.40;26.60
55449;PMS5003;41318;58.724;50.180;2022-10-16T10:56:43;33.40;31.60;22.20
55449;PMS5003;41318;58.724;50.180;2022-10-16T10:59:19;26.00;25.80;22.00
55449;PMS5003;41318;58.724;50.180;2022-10-16T11:07:13;30.20;30.00;20.60
55449;PMS5003;41318;58.724;50.180;2022-10-16T11:12:41;25.40;25.00;16.80
55449;PMS5003;41318;58.724;50.180;2022-10-16T11:15:27;28.40;28.00;19.80
55449;PMS5003;41318;58.724;50.180;2022-10-16T11:23:29;30.20;30.20;20.80
55449;PMS5003;41318;58.724;50.180;2022-10-16T11:26:02;38.00;34.60;24.00
55449;PMS5003;41318;58.724;50.180;2022-10-16T11:28:42;24.60;24.60;17.60
55449;PMS5003;41318;58.724;50.180;2022-10-16T11:31:24;24.00;22.25;15.25
55449;PMS5003;41318;58.724;50.180;2022-10-16T11:34:11;22.50;21.75;15.00
55449;PMS5003;41318;58.724;50.180;2022-10-16T11:39:35;17.80;17.20;14.20
55449;PMS5003;41318;58.724;50.180;2022-10-16T11:42:13;31.20;29.80;20.00
55449;PMS5003;41318;58.724;50.180;2022-10-16T11:47:34;24.25;23.50;16.00
55449;PMS5003;41318;58.724;50.180;2022-10-16T11:51:08;17.50;17.50;8.75
55449;PMS5003;41318;58.724;50.180;2022-10-16T11:56:33;20.60;20.60;14.40
55449;PMS5003;41318;58.724;50.180;2022-10-16T12:01:49;6.00;6.00;4.00
55449;PMS5003;41318;58.724;50.180;2022-10-16T12:04:30;15.40;15.00;10.00
55449;PMS5003;41318;58.724;50.180;2022-10-16T12:07:06;23.00;23.00;15.40
55449;PMS5003;41318;58.724;50.180;2022-10-16T12:09:39;22.40;22.40;16.40
55449;PMS5003;41318;58.724;50.180;2022-10-16T12:15:18;28.80;28.60;20.20
55449;PMS5003;41318;58.724;50.180;2022-10-16T12:17:49;27.40;27.40;19.00
55449;PMS5003;41318;58.724;50.180;2022-10-16T12:20:33;25.00;24.80;18.20
55449;PMS5003;41318;58.724;50.180;2022-10-16T12:23:06;29.80;28.40;20.00
55449;PMS5003;41318;58.724;50.180;2022-10-16T12:25:38;23.40;23.40;17.40
55449;PMS5003;41318;58.724;50.180;2022-10-16T12:28:35;44.40;38.80;25.40
55449;PMS5003;41318;58.724;50.180;2022-10-16T12:31:07;48.60;41.20;26.00
55449;PMS5003;41318;58.724;50.180;2022-10-16T12:33:41;36.00;34.00;23.80
55449;PMS5003;41318;58.724;50.180;2022-10-16T12:36:13;39.00;36.00;24.00
55449;PMS5003;41318;58.724;50.180;2022-10-16T12:41:26;26.00;25.00;14.00
55449;PMS5003;41318;58.724;50.180;2022-10-16T12:43:58;26.40;26.00;16.60
55449;PMS5003;41318;58.724;50.180;2022-10-16T12:46:50;21.60;21.60;15.80
55449;PMS5003;41318;58.724;50.180;2022-10-16T12:51:52;19.00;18.00;12.00
55449;PMS5003;41318;58.724;50.180;2022-10-16T12:54:42;16.00;16.00;11.50
55449;PMS5003;41318;58.724;50.180;2022-10-16T12:57:30;29.60;29.40;18.40
55449;PMS5003;41318;58.724;50.180;2022-10-16T13:00:23;21.60;21.40;14.40
55449;PMS5003;41318;58.724;50.180;2022-10-16T13:08:15;23.25;23.25;16.00
55449;PMS5003;41318;58.724;50.180;2022-10-16T13:16:35;15.80;15.80;10.40
55449;PMS5003;41318;58.724;50.180;2022-10-16T13:30:01;16.80;16.80;13.20
55449;PMS5003;41318;58.724;50.180;2022-10-16T13:32:33;14.00;14.00;10.00
55449;PMS5003;41318;58.724;50.180;2022-10-16T13:35:18;17.75;17.75;14.00
55449;PMS5003;41318;58.724;50.180;2022-10-16T13:37:49;18.00;17.60;14.40
55449;PMS5003;41318;58.724;50.180;2022-10-16T13:40:24;19.60;19.60;15.40
55449;PMS5003;41318;58.724;50.180;2022-10-16T13:43:13;19.60;19.20;14.00
55449;PMS5003;41318;58.724;50.180;2022-10-16T13:45:54;15.25;15.25;10.75
55449;PMS5003;41318;58.724;50.180;2022-10-16T13:48:25;16.60;16.60;13.20
55449;PMS5003;41318;58.724;50.180;2022-10-16T13:51:06;16.60;15.60;11.20
55449;PMS5003;41318;58.724;50.180;2022-10-16T13:53:42;21.80;21.20;12.80
55449;PMS5003;41318;58.724;50.180;2022-10-16T13:56:15;16.40;16.40;12.80
55449;PMS5003;41318;58.724;50.180;2022-10-16T13:58:46;17.00;16.20;12.00
55449;PMS5003;41318;58.724;50.180;2022-10-16T14:01:29;16.00;16.00;13.80
55449;PMS5003;41318;58.724;50.180;2022-10-16T14:04:19;23.40;23.00;14.40
55449;PMS5003;41318;58.724;50.180;2022-10-16T14:06:50;23.20;23.20;15.20
55449;PMS5003;41318;58.724;50.180;2022-10-16T14:09:23;14.20;14.20;11.60
55449;PMS5003;41318;58.724;50.180;2022-10-16T14:11:56;67.40;53.80;32.20
55449;PMS5003;41318;58.724;50.180;2022-10-16T14:14:38;23.40;23.20;13.60
55449;PMS5003;41318;58.724;50.180;2022-10-16T14:17:22;21.00;20.80;13.80
55449;PMS5003;41318;58.724;50.180;2022-10-16T14:19:54;16.75;16.00;10.50
55449;PMS5003;41318;58.724;50.180;2022-10-16T14:25:20;13.00;13.00;9.60
55449;PMS5003;41318;58.724;50.180;2022-10-16T14:30:57;15.50;15.50;9.75
55449;PMS5003;41318;58.724;50.180;2022-10-16T14:33:47;15.40;15.20;12.20
55449;PMS5003;41318;58.724;50.180;2022-10-16T14:36:18;13.50;13.00;7.75
55449;PMS5003;41318;58.724;50.180;2022-10-16T14:41:33;14.00;13.75;9.00
55449;PMS5003;41318;58.724;50.180;2022-10-16T14:44:12;12.80;12.80;6.60
55449;PMS5003;41318;58.724;50.180;2022-10-16T14:46:43;16.60;16.20;10.80
55449;PMS5003;41318;58.724;50.180;2022-10-16T14:49:16;16.80;16.40;11.40
55449;PMS5003;41318;58.724;50.180;2022-10-16T14:51:49;17.60;17.20;8.40
55449;PMS5003;41318;58.724;50.180;2022-10-16T14:54:20;18.80;18.60;12.40
55449;PMS5003;41318;58.724;50.180;2022-10-16T14:56:57;19.25;19.25;12.50
55449;PMS5003;41318;58.724;50.180;2022-10-16T14:59:34;26.00;26.00;15.20
55449;PMS5003;41318;58.724;50.180;2022-10-16T15:02:16;22.80;22.20;16.00
55449;PMS5003;41318;58.724;50.180;2022-10-16T15:04:48;28.60;27.80;16.80
55449;PMS5003;41318;58.724;50.180;2022-10-16T15:07:20;24.20;23.80;14.40
55449;PMS5003;41318;58.724;50.180;2022-10-16T15:09:51;29.80;29.80;20.40
55449;PMS5003;41318;58.724;50.180;2022-10-16T15:12:22;34.00;32.60;21.40
55449;PMS5003;41318;58.724;50.180;2022-10-16T15:14:53;23.25;22.00;12.50
55449;PMS5003;41318;58.724;50.180;2022-10-16T15:17:24;17.25;16.50;10.00
55449;PMS5003;41318;58.724;50.180;2022-10-16T15:19:55;29.75;27.50;20.00
55449;PMS5003;41318;58.724;50.180;2022-10-16T15:22:26;25.00;25.00;17.80
55449;PMS5003;41318;58.724;50.180;2022-10-16T15:24:57;27.75;26.50;20.25
55449;PMS5003;41318;58.724;50.180;2022-10-16T15:27:28;69.80;52.00;29.20
55449;PMS5003;41318;58.724;50.180;2022-10-16T15:29:59;90.40;77.00;39.40
55449;PMS5003;41318;58.724;50.180;2022-10-16T15:32:30;98.25;73.75;38.00
55449;PMS5003;41318;58.724;50.180;2022-10-16T15:35:00;93.00;74.50;41.00
55449;PMS5003;41318;58.724;50.180;2022-10-16T15:37:33;81.00;67.40;36.80
55449;PMS5003;41318;58.724;50.180;2022-10-16T15:40:04;64.75;50.50;29.00
55449;PMS5003;41318;58.724;50.180;2022-10-16T15:42:35;43.60;37.00;24.00
55449;PMS5003;41318;58.724;50.180;2022-10-16T15:45:06;29.80;29.20;21.60
55449;PMS5003;41318;58.724;50.180;2022-10-16T15:47:37;38.40;35.80;22.60
55449;PMS5003;41318;58.724;50.180;2022-10-16T15:50:11;31.40;30.40;20.80
55449;PMS5003;41318;58.724;50.180;2022-10-16T15:52:42;48.40;41.40;27.60
55449;PMS5003;41318;58.724;50.180;2022-10-16T15:55:14;77.00;61.00;38.60
55449;PMS5003;41318;58.724;50.180;2022-10-16T15:57:45;71.20;58.00;37.00
55449;PMS5003;41318;58.724;50.180;2022-10-16T16:00:18;54.40;46.80;30.00
55449;PMS5003;41318;58.724;50.180;2022-10-16T16:03:09;63.40;52.00;31.40
55449;PMS5003;41318;58.724;50.180;2022-10-16T16:06:03;85.40;75.80;41.20
55449;PMS5003;41318;58.724;50.180;2022-10-16T16:08:34;80.00;67.40;38.00